createdAt,value
2019-03-08T00:00:43.861Z,8.40
2019-03-08T00:03:13.136Z,8.30
2019-03-08T00:05:42.116Z,8.20
2019-03-08T00:08:12.523Z,8.20
2019-03-08T00:10:42.453Z,8.10
2019-03-08T00:13:12.125Z,8.00
2019-03-08T00:15:42.737Z,7.90
2019-03-08T00:18:14.808Z,7.90
2019-03-08T00:20:44.663Z,7.90
2019-03-08T00:23:14.777Z,7.90
2019-03-08T00:25:44.451Z,7.90
2019-03-08T00:28:14.279Z,7.90
2019-03-08T00:30:43.489Z,8.00
2019-03-08T00:33:13.026Z,8.00
2019-03-08T00:35:44.875Z,8.00
2019-03-08T00:38:14.763Z,8.00
2019-03-08T00:40:45.739Z,8.00
2019-03-08T00:43:14.908Z,8.00
2019-03-08T00:45:44.102Z,8.00
2019-03-08T00:48:15.216Z,8.00
2019-03-08T00:50:44.721Z,8.00
2019-03-08T00:53:15.674Z,8.00
2019-03-08T00:55:45.297Z,8.00
2019-03-08T00:58:14.724Z,8.00
2019-03-08T01:00:50.128Z,8.00
2019-03-08T01:03:25.673Z,8.00
2019-03-08T01:05:55.194Z,8.00
2019-03-08T01:08:24.564Z,8.00
2019-03-08T01:10:53.897Z,8.10
2019-03-08T01:13:23.215Z,8.10
2019-03-08T01:15:52.786Z,8.10
2019-03-08T01:18:21.962Z,8.00
2019-03-08T01:20:51.104Z,8.00
2019-03-08T01:23:20.316Z,8.00
2019-03-08T01:25:49.458Z,8.00
2019-03-08T01:28:18.853Z,8.00
2019-03-08T01:30:48.060Z,8.00
2019-03-08T01:33:19.027Z,7.90
2019-03-08T01:35:48.251Z,7.90
2019-03-08T01:38:17.336Z,7.80
2019-03-08T01:40:46.635Z,7.70
2019-03-08T01:43:15.955Z,7.50
2019-03-08T01:45:45.036Z,7.50
2019-03-08T01:48:14.224Z,7.30
2019-03-08T01:50:43.438Z,7.20
2019-03-08T01:53:12.564Z,7.20
2019-03-08T01:55:41.671Z,7.10
2019-03-08T01:58:10.823Z,7.10
2019-03-08T02:00:40.866Z,7.10
2019-03-08T02:03:10.174Z,7.10
2019-03-08T02:05:39.407Z,7.10
2019-03-08T02:08:08.552Z,7.10
2019-03-08T02:10:37.591Z,7.20
2019-03-08T02:13:06.670Z,7.20
2019-03-08T02:15:36.197Z,7.20
2019-03-08T02:18:05.289Z,7.10
2019-03-08T02:20:34.489Z,7.10
2019-03-08T02:23:03.668Z,7.10
2019-03-08T02:25:32.866Z,7.00
2019-03-08T02:28:02.093Z,6.90
2019-03-08T02:30:31.202Z,6.90
2019-03-08T02:33:00.383Z,6.90
2019-03-08T02:35:29.507Z,6.90
2019-03-08T02:37:58.748Z,6.80
2019-03-08T02:40:37.915Z,6.80
2019-03-08T02:43:11.728Z,6.80
2019-03-08T02:45:41.000Z,6.70
2019-03-08T02:48:10.215Z,6.70
2019-03-08T02:50:39.357Z,6.70
2019-03-08T02:53:08.555Z,6.70
2019-03-08T02:55:37.616Z,6.70
2019-03-08T02:58:06.784Z,6.80
2019-03-08T03:00:48.042Z,6.80
2019-03-08T03:03:17.805Z,6.80
2019-03-08T03:05:47.068Z,6.80
2019-03-08T03:08:16.191Z,6.70
2019-03-08T03:10:49.033Z,6.70
2019-03-08T03:13:18.160Z,6.70
2019-03-08T03:15:47.535Z,6.70
2019-03-08T03:18:16.720Z,6.70
2019-03-08T03:20:45.851Z,6.70
2019-03-08T03:23:15.131Z,6.70
2019-03-08T03:25:44.339Z,6.70
2019-03-08T03:28:13.569Z,6.70
2019-03-08T03:30:42.697Z,6.70
2019-03-08T03:33:12.483Z,6.70
2019-03-08T03:35:41.396Z,6.70
2019-03-08T03:38:10.571Z,6.70
2019-03-08T03:40:39.640Z,6.70
2019-03-08T03:43:08.611Z,6.80
2019-03-08T03:45:37.829Z,6.80
2019-03-08T03:48:07.423Z,6.80
2019-03-08T03:50:36.788Z,6.80
2019-03-08T03:53:08.332Z,6.90
2019-03-08T03:55:37.648Z,6.90
2019-03-08T03:58:06.940Z,6.90
2019-03-08T04:00:36.493Z,6.90
2019-03-08T04:03:05.957Z,7.00
2019-03-08T04:05:35.378Z,7.00
2019-03-08T04:08:04.630Z,7.00
2019-03-08T04:10:34.014Z,7.00
2019-03-08T04:13:03.528Z,7.00
2019-03-08T04:15:33.333Z,7.00
2019-03-08T04:18:02.650Z,7.10
2019-03-08T04:20:31.974Z,7.10
2019-03-08T04:23:01.199Z,7.10
2019-03-08T04:25:30.562Z,7.10
2019-03-08T04:28:00.223Z,7.10
2019-03-08T04:30:29.274Z,7.10
2019-03-08T04:32:58.323Z,7.10
2019-03-08T04:35:27.464Z,7.10
2019-03-08T04:37:56.487Z,7.00
2019-03-08T04:40:25.632Z,7.00
2019-03-08T04:42:55.061Z,7.00
2019-03-08T04:45:24.020Z,7.00
2019-03-08T04:47:53.136Z,7.00
2019-03-08T04:50:22.231Z,7.00
2019-03-08T04:52:51.260Z,7.00
2019-03-08T04:55:20.426Z,7.00
2019-03-08T04:57:49.709Z,7.00
2019-03-08T05:00:18.961Z,7.00
2019-03-08T05:02:48.063Z,7.00
2019-03-08T05:05:17.213Z,7.00
2019-03-08T05:07:46.253Z,7.00
2019-03-08T05:10:15.666Z,7.00
2019-03-08T05:12:44.831Z,7.00
2019-03-08T05:15:15.519Z,7.00
2019-03-08T05:17:44.646Z,7.00
2019-03-08T05:20:13.996Z,7.00
2019-03-08T05:22:43.149Z,7.00
2019-03-08T05:25:12.255Z,7.00
2019-03-08T05:27:41.394Z,7.00
2019-03-08T05:30:11.380Z,7.00
2019-03-08T05:32:40.505Z,7.00
2019-03-08T05:35:09.553Z,7.00
2019-03-08T05:37:39.466Z,7.00
2019-03-08T05:40:08.878Z,7.00
2019-03-08T05:42:38.034Z,7.00
2019-03-08T05:45:07.158Z,6.90
2019-03-08T05:47:36.152Z,6.90
2019-03-08T05:50:05.652Z,6.90
2019-03-08T05:52:34.702Z,6.90
2019-03-08T05:55:04.219Z,6.80
2019-03-08T05:57:33.312Z,6.80
2019-03-08T06:00:02.553Z,6.70
2019-03-08T06:02:31.703Z,6.70
2019-03-08T06:05:00.698Z,6.70
2019-03-08T06:07:29.851Z,6.70
2019-03-08T06:09:59.189Z,6.80
2019-03-08T06:12:28.254Z,6.80
2019-03-08T06:14:57.245Z,6.80
2019-03-08T06:17:26.301Z,6.70
2019-03-08T06:19:55.467Z,6.80
2019-03-08T06:22:24.596Z,6.80
2019-03-08T06:24:53.926Z,6.80
2019-03-08T06:27:22.991Z,6.90
2019-03-08T06:29:52.044Z,7.00
2019-03-08T06:32:40.404Z,7.00
2019-03-08T06:35:09.736Z,7.00
2019-03-08T06:37:38.795Z,7.00
2019-03-08T06:40:07.964Z,7.00
2019-03-08T06:42:37.036Z,7.00
2019-03-08T06:45:06.753Z,7.00
2019-03-08T06:47:35.647Z,7.00
2019-03-08T06:50:05.408Z,7.00
2019-03-08T06:52:34.444Z,7.00
2019-03-08T06:55:03.683Z,7.00
2019-03-08T06:57:32.755Z,6.90
2019-03-08T07:00:20.953Z,6.90
2019-03-08T07:02:49.945Z,6.80
2019-03-08T07:05:18.971Z,6.60
2019-03-08T07:07:48.066Z,6.50
2019-03-08T07:10:17.133Z,6.30
2019-03-08T07:12:46.192Z,6.10
2019-03-08T07:15:15.553Z,6.00
2019-03-08T07:17:44.623Z,5.90
2019-03-08T07:20:31.527Z,5.90
2019-03-08T07:23:11.947Z,5.90
2019-03-08T07:26:03.145Z,5.90
2019-03-08T07:29:06.400Z,5.90
2019-03-08T07:32:00.810Z,5.90
2019-03-08T07:34:55.225Z,5.90
2019-03-08T07:37:37.063Z,6.00
2019-03-08T07:40:24.709Z,6.00
2019-03-08T07:43:09.681Z,6.10
2019-03-08T07:45:56.546Z,6.10
2019-03-08T07:48:57.542Z,6.20
2019-03-08T07:51:37.174Z,6.20
2019-03-08T07:54:31.195Z,6.20
2019-03-08T07:57:18.205Z,6.20
2019-03-08T08:00:00.358Z,6.20
2019-03-08T08:02:45.670Z,6.30
2019-03-08T08:05:30.156Z,6.30
2019-03-08T08:08:24.067Z,6.30
2019-03-08T08:11:24.285Z,6.30
2019-03-08T08:14:00.409Z,6.40
2019-03-08T08:16:46.715Z,6.40
2019-03-08T08:19:41.101Z,6.40
2019-03-08T08:22:29.279Z,6.50
2019-03-08T08:25:11.263Z,6.40
2019-03-08T08:27:50.786Z,6.00
2019-03-08T08:30:49.566Z,5.70
2019-03-08T08:33:32.707Z,5.50
2019-03-08T08:36:19.487Z,5.40
2019-03-08T08:39:01.659Z,5.30
2019-03-08T08:41:55.960Z,5.30
2019-03-08T08:44:47.411Z,5.30
2019-03-08T08:47:34.391Z,5.40
2019-03-08T08:50:14.836Z,5.40
2019-03-08T08:52:55.139Z,5.60
2019-03-08T08:55:43.687Z,5.80
2019-03-08T08:58:31.951Z,5.90
2019-03-08T09:01:17.087Z,6.00
2019-03-08T09:04:08.591Z,6.20
2019-03-08T09:06:55.396Z,6.30
2019-03-08T09:09:46.592Z,6.40
2019-03-08T09:12:37.577Z,6.50
2019-03-08T09:15:24.478Z,6.60
2019-03-08T09:18:15.813Z,6.60
2019-03-08T09:21:10.093Z,6.90
2019-03-08T09:23:55.031Z,7.30
2019-03-08T09:26:43.205Z,7.70
2019-03-08T09:29:21.952Z,8.20
2019-03-08T09:32:06.354Z,8.60
2019-03-08T09:34:54.412Z,8.80
2019-03-08T09:37:34.139Z,8.80
2019-03-08T09:40:37.341Z,8.80
2019-03-08T09:43:24.088Z,8.50
2019-03-08T09:46:20.701Z,8.20
2019-03-08T09:48:56.518Z,8.10
2019-03-08T09:51:47.900Z,8.20
2019-03-08T09:54:42.067Z,8.30
2019-03-08T09:57:17.491Z,8.80
2019-03-08T09:59:58.676Z,9.60
2019-03-08T10:02:45.436Z,9.80
2019-03-08T10:05:25.143Z,9.50
2019-03-08T10:08:01.167Z,9.50
2019-03-08T10:10:49.285Z,9.70
2019-03-08T10:13:28.551Z,9.50
2019-03-08T10:16:21.104Z,10.00
2019-03-08T10:19:09.364Z,10.20
2019-03-08T10:21:54.131Z,9.90
2019-03-08T10:24:48.129Z,9.50
2019-03-08T10:27:38.100Z,9.30
2019-03-08T10:30:25.152Z,9.20
2019-03-08T10:33:05.908Z,9.20
2019-03-08T10:35:42.395Z,9.20
2019-03-08T10:38:36.399Z,9.10
2019-03-08T10:41:23.302Z,9.70
2019-03-08T10:44:08.681Z,9.60
2019-03-08T10:47:01.284Z,9.50
2019-03-08T10:49:54.876Z,9.40
2019-03-08T10:52:39.043Z,9.20
2019-03-08T10:55:43.060Z,9.30
2019-03-08T10:58:33.863Z,9.70
2019-03-08T11:01:41.815Z,10.50
2019-03-08T11:04:19.379Z,10.50
2019-03-08T11:07:07.414Z,9.80
2019-03-08T11:09:54.162Z,8.90
2019-03-08T11:12:36.096Z,8.50
2019-03-08T11:15:24.344Z,8.20
2019-03-08T11:18:04.475Z,7.80
2019-03-08T11:20:40.849Z,7.70
2019-03-08T11:23:28.792Z,7.80
2019-03-08T11:26:25.830Z,7.80
2019-03-08T11:29:06.739Z,7.70
2019-03-08T11:32:00.965Z,7.70
2019-03-08T11:34:52.208Z,7.70
2019-03-08T11:37:37.678Z,8.00
2019-03-08T11:40:14.701Z,8.50
2019-03-08T11:43:01.376Z,9.00
2019-03-08T11:45:55.597Z,9.40
2019-03-08T11:48:44.356Z,9.50
2019-03-08T11:51:47.932Z,9.30
2019-03-08T11:54:29.684Z,8.90
2019-03-08T11:57:05.878Z,8.40
2019-03-08T11:59:48.406Z,8.20
2019-03-08T12:02:37.393Z,7.90
2019-03-08T12:05:16.829Z,7.90
2019-03-08T12:07:55.565Z,7.70
2019-03-08T12:11:02.040Z,7.90
2019-03-08T12:13:50.163Z,7.90
2019-03-08T12:16:38.323Z,8.20
2019-03-08T12:19:22.808Z,8.70
2019-03-08T12:22:13.960Z,8.50
2019-03-08T12:25:04.876Z,8.20
2019-03-08T12:28:01.996Z,8.20
2019-03-08T12:30:42.916Z,8.00
2019-03-08T12:33:27.336Z,7.80
2019-03-08T12:36:15.455Z,7.70
2019-03-08T12:39:03.591Z,7.70
2019-03-08T12:41:51.786Z,8.10
2019-03-08T12:44:37.284Z,8.70
2019-03-08T12:47:28.431Z,9.10
2019-03-08T12:50:12.982Z,8.90
2019-03-08T12:53:00.103Z,8.60
2019-03-08T12:55:47.005Z,8.40
2019-03-08T12:58:42.331Z,8.40
2019-03-08T13:01:24.925Z,8.50
2019-03-08T13:04:01.571Z,8.30
2019-03-08T13:06:49.759Z,8.20
2019-03-08T13:09:32.070Z,8.00
2019-03-08T13:12:01.163Z,8.10
2019-03-08T13:14:30.263Z,7.70
2019-03-08T13:16:59.509Z,7.40
2019-03-08T13:19:28.638Z,7.50
2019-03-08T13:21:57.935Z,7.70
2019-03-08T13:24:27.320Z,8.20
2019-03-08T13:26:56.405Z,8.40
2019-03-08T13:29:25.574Z,8.80
2019-03-08T13:31:54.805Z,9.90
2019-03-08T13:34:23.940Z,10.50
2019-03-08T13:36:52.901Z,11.40
2019-03-08T13:39:22.043Z,11.80
2019-03-08T13:41:51.173Z,12.10
2019-03-08T13:44:20.237Z,12.60
2019-03-08T13:46:50.209Z,12.90
2019-03-08T13:49:20.129Z,13.00
2019-03-08T13:51:49.510Z,12.00
2019-03-08T13:54:18.797Z,11.40
2019-03-08T13:56:47.989Z,10.50
2019-03-08T13:59:17.031Z,10.20
2019-03-08T14:01:46.164Z,10.30
2019-03-08T14:04:16.591Z,10.90
2019-03-08T14:06:45.695Z,10.90
2019-03-08T14:09:15.569Z,10.50
2019-03-08T14:11:45.341Z,10.00
2019-03-08T14:14:14.462Z,9.80
2019-03-08T14:16:44.024Z,9.70
2019-03-08T14:19:13.166Z,9.50
2019-03-08T14:21:42.148Z,9.40
2019-03-08T14:24:11.172Z,9.40
2019-03-08T14:26:40.163Z,9.30
2019-03-08T14:29:09.270Z,9.20
2019-03-08T14:31:49.219Z,9.20
2019-03-08T14:34:19.276Z,9.00
2019-03-08T14:36:48.351Z,8.80
2019-03-08T14:39:17.533Z,8.80
2019-03-08T14:42:05.325Z,8.80
2019-03-08T14:45:08.883Z,9.00
2019-03-08T14:47:44.272Z,9.70
2019-03-08T14:50:13.825Z,10.80
2019-03-08T14:52:43.017Z,11.30
2019-03-08T14:55:19.129Z,11.40
2019-03-08T14:57:47.828Z,10.70
2019-03-08T15:00:25.322Z,10.30
2019-03-08T15:02:53.625Z,9.70
2019-03-08T15:05:22.763Z,9.40
2019-03-08T15:07:51.888Z,9.10
2019-03-08T15:10:21.153Z,9.10
2019-03-08T15:12:50.435Z,8.90
2019-03-08T15:15:19.774Z,9.00
2019-03-08T15:17:49.582Z,9.10
2019-03-08T15:20:20.144Z,9.10
2019-03-08T15:22:49.639Z,9.10
2019-03-08T15:25:18.899Z,9.00
2019-03-08T15:27:48.233Z,9.00
2019-03-08T15:30:17.831Z,9.10
2019-03-08T15:32:49.838Z,9.10
2019-03-08T15:35:19.122Z,8.80
2019-03-08T15:37:48.286Z,8.70
2019-03-08T15:40:18.552Z,8.60
2019-03-08T15:42:47.716Z,8.50
2019-03-08T15:45:17.316Z,8.40
2019-03-08T15:47:46.764Z,8.40
2019-03-08T15:50:16.417Z,8.40
2019-03-08T15:52:45.581Z,8.40
2019-03-08T15:55:14.911Z,8.70
2019-03-08T15:57:44.091Z,9.20
2019-03-08T16:00:17.820Z,9.40
2019-03-08T16:02:46.986Z,9.30
2019-03-08T16:05:16.344Z,9.10
2019-03-08T16:07:45.480Z,8.90
2019-03-08T16:10:15.606Z,8.80
2019-03-08T16:12:45.161Z,8.70
2019-03-08T16:15:14.847Z,8.70
2019-03-08T16:17:44.021Z,8.80
2019-03-08T16:20:14.177Z,8.80
2019-03-08T16:22:43.275Z,8.80
2019-03-08T16:25:13.412Z,8.70
2019-03-08T16:27:42.540Z,8.60
2019-03-08T16:30:26.569Z,8.40
2019-03-08T16:33:02.671Z,8.20
2019-03-08T16:35:40.148Z,8.10
2019-03-08T16:38:14.090Z,7.90
2019-03-08T16:41:08.068Z,7.80
2019-03-08T16:43:45.732Z,7.70
2019-03-08T16:46:36.504Z,7.60
2019-03-08T16:49:25.044Z,7.50
2019-03-08T16:52:31.066Z,7.50
2019-03-08T16:55:46.116Z,7.40
2019-03-08T16:58:25.213Z,7.30
2019-03-08T17:01:02.879Z,7.20
2019-03-08T17:03:43.564Z,7.20
2019-03-08T17:06:26.579Z,7.10
2019-03-08T17:09:01.174Z,7.00
2019-03-08T17:11:47.700Z,7.00
2019-03-08T17:14:34.335Z,6.90
2019-03-08T17:17:16.618Z,6.80
2019-03-08T17:20:22.934Z,6.80
2019-03-08T17:23:24.643Z,6.70
2019-03-08T17:26:11.357Z,6.60
2019-03-08T17:28:59.487Z,6.60
2019-03-08T17:31:46.347Z,6.50
2019-03-08T17:34:45.574Z,6.50
2019-03-08T17:37:19.606Z,6.50
2019-03-08T17:39:53.206Z,6.40
2019-03-08T17:42:39.995Z,6.40
2019-03-08T17:45:43.523Z,6.40
2019-03-08T17:48:30.320Z,6.40
2019-03-08T17:51:17.207Z,6.40
2019-03-08T17:54:17.579Z,6.40
2019-03-08T17:57:14.640Z,6.40
2019-03-08T18:00:02.760Z,6.40
2019-03-08T18:02:50.217Z,6.40
2019-03-08T18:05:37.133Z,6.40
2019-03-08T18:08:23.876Z,6.40
2019-03-08T18:11:11.170Z,6.50
2019-03-08T18:14:02.368Z,6.50
2019-03-08T18:16:53.448Z,6.60
2019-03-08T18:19:53.584Z,6.60
2019-03-08T18:22:47.684Z,6.60
2019-03-08T18:25:24.344Z,6.70
2019-03-08T18:28:20.186Z,6.70
2019-03-08T18:31:17.549Z,6.80
2019-03-08T18:34:14.812Z,6.80
2019-03-08T18:37:01.969Z,6.90
2019-03-08T18:39:38.051Z,6.90
2019-03-08T18:42:28.277Z,6.90
2019-03-08T18:45:07.322Z,7.00
2019-03-08T18:47:46.097Z,7.00
2019-03-08T18:50:30.924Z,7.10
2019-03-08T18:53:22.357Z,7.10
2019-03-08T18:56:10.468Z,7.00
2019-03-08T18:58:45.971Z,7.00
2019-03-08T19:01:34.123Z,7.00
2019-03-08T19:04:18.851Z,7.00
2019-03-08T19:07:02.632Z,7.00
2019-03-08T19:09:43.153Z,6.90
2019-03-08T19:12:30.112Z,6.90
2019-03-08T19:15:27.620Z,6.90
2019-03-08T19:18:27.744Z,6.90
2019-03-08T19:21:31.049Z,6.90
2019-03-08T19:24:22.262Z,6.90
2019-03-08T19:27:02.476Z,6.90
2019-03-08T19:29:50.649Z,6.90
2019-03-08T19:32:39.452Z,6.80
2019-03-08T19:35:26.034Z,6.80
2019-03-08T19:38:06.471Z,6.80
2019-03-08T19:40:43.621Z,6.80
2019-03-08T19:43:28.147Z,6.80
2019-03-08T19:46:22.499Z,6.80
2019-03-08T19:49:06.641Z,6.80
2019-03-08T19:51:55.512Z,6.80
2019-03-08T19:54:49.480Z,6.80
2019-03-08T19:57:43.882Z,6.80
2019-03-08T20:00:31.612Z,6.80
2019-03-08T20:03:18.478Z,6.90
2019-03-08T20:06:05.843Z,6.80
2019-03-08T20:09:09.218Z,6.80
2019-03-08T20:12:00.301Z,6.70
2019-03-08T20:15:07.090Z,6.60
2019-03-08T20:17:45.726Z,6.70
2019-03-08T20:20:34.557Z,6.70
2019-03-08T20:23:34.667Z,6.70
2019-03-08T20:26:43.738Z,6.70
2019-03-08T20:29:21.256Z,6.70
2019-03-08T20:32:04.307Z,6.70
2019-03-08T20:34:58.530Z,6.70
2019-03-08T20:37:43.816Z,6.70
2019-03-08T20:40:32.083Z,6.70
2019-03-08T20:43:05.424Z,6.70
2019-03-08T20:46:02.840Z,6.80
2019-03-08T20:48:35.374Z,6.80
2019-03-08T20:51:04.543Z,6.60
2019-03-08T20:53:33.673Z,6.30
2019-03-08T20:56:02.824Z,6.20
2019-03-08T20:58:32.007Z,6.10
2019-03-08T21:01:01.303Z,6.00
2019-03-08T21:03:30.631Z,5.90
2019-03-08T21:05:59.723Z,5.90
2019-03-08T21:08:28.852Z,5.90
2019-03-08T21:10:57.975Z,5.80
2019-03-08T21:13:27.095Z,5.80
2019-03-08T21:15:56.203Z,5.80
2019-03-08T21:18:25.613Z,5.70
2019-03-08T21:20:54.639Z,5.70
2019-03-08T21:23:23.811Z,5.70
2019-03-08T21:25:52.944Z,5.70
2019-03-08T21:28:22.025Z,5.60
2019-03-08T21:30:51.053Z,5.60
2019-03-08T21:33:20.266Z,5.60
2019-03-08T21:35:49.436Z,5.60
2019-03-08T21:38:18.583Z,5.60
2019-03-08T21:40:47.640Z,5.60
2019-03-08T21:43:16.692Z,5.60
2019-03-08T21:45:45.784Z,5.60
2019-03-08T21:48:14.970Z,5.60
2019-03-08T21:50:44.081Z,5.60
2019-03-08T21:53:14.260Z,5.70
2019-03-08T21:55:43.414Z,5.70
2019-03-08T21:58:14.766Z,5.70
2019-03-08T22:00:43.940Z,5.70
2019-03-08T22:03:14.070Z,5.70
2019-03-08T22:05:43.169Z,5.70
2019-03-08T22:08:17.522Z,5.80
2019-03-08T22:10:45.570Z,5.90
2019-03-08T22:13:14.787Z,5.90
2019-03-08T22:15:43.936Z,6.00
2019-03-08T22:18:12.937Z,6.00
2019-03-08T22:20:42.031Z,6.10
2019-03-08T22:23:11.116Z,6.10
2019-03-08T22:25:40.199Z,6.20
2019-03-08T22:28:09.305Z,6.20
2019-03-08T22:30:38.376Z,6.30
2019-03-08T22:33:07.540Z,6.30
2019-03-08T22:35:36.906Z,6.30
2019-03-08T22:38:06.017Z,6.30
2019-03-08T22:40:35.137Z,6.30
2019-03-08T22:43:04.373Z,6.30
2019-03-08T22:45:33.472Z,6.30
2019-03-08T22:48:02.824Z,6.30
2019-03-08T22:50:31.875Z,6.30
2019-03-08T22:53:00.977Z,6.30
2019-03-08T22:55:30.137Z,6.30
2019-03-08T22:57:59.276Z,6.40
2019-03-08T23:00:50.166Z,6.40
2019-03-08T23:03:22.302Z,6.40
2019-03-08T23:05:51.479Z,6.40
2019-03-08T23:08:22.934Z,6.40
2019-03-08T23:10:52.012Z,6.50
2019-03-08T23:13:21.083Z,6.50
2019-03-08T23:15:50.289Z,6.50
2019-03-08T23:18:19.380Z,6.50
2019-03-08T23:20:48.540Z,6.60
2019-03-08T23:23:17.771Z,6.50
2019-03-08T23:25:46.901Z,6.50
2019-03-08T23:28:27.811Z,6.50
2019-03-08T23:31:00.573Z,6.60
2019-03-08T23:33:29.655Z,6.60
2019-03-08T23:35:58.906Z,6.70
2019-03-08T23:38:28.149Z,6.70
2019-03-08T23:40:57.284Z,6.70
2019-03-08T23:43:26.377Z,6.80
2019-03-08T23:45:55.655Z,6.80
2019-03-08T23:48:24.714Z,6.80
2019-03-08T23:50:53.948Z,6.80
2019-03-08T23:53:22.999Z,6.80
2019-03-08T23:55:52.139Z,6.90
2019-03-08T23:58:21.270Z,6.90
